Time;durP1;ratioP1;P1;durP2;ratioP2;P2;SDS_P1;SDS_P2;PMS_P1;PMS_P2;Temp;Humidity;BMP_temperature;BMP_pressure;BME280_temperature;BME280_humidity;BME280_pressure;Samples;Min_cycle;Max_cycle;Signal;HPM_P1;HPM_P2
2024/01/01 00:09:57;;;;;;;46.78;31.90;;;;;;;21.05;54.88;99679.81;41215858;28;21805;-69
2024/01/01 00:29:59;;;;;;;47.25;33.10;;;;;;;21.06;55.20;99664.84;41189492;28;20063;-69
2024/01/01 00:50:00;;;;;;;48.17;33.75;;;;;;;20.99;55.13;99650.56;41193576;28;20039;-70
2024/01/01 01:10:04;;;;;;;44.97;30.27;;;;;;;20.93;55.04;99623.84;41378171;28;20042;-69
2024/01/01 01:30:06;;;;;;;43.05;30.83;;;;;;;20.88;55.12;99612.84;41374990;28;20059;-69
2024/01/01 01:50:07;;;;;;;37.53;27.27;;;;;;;20.85;55.24;99604.41;41369634;28;20450;-69
2024/01/01 02:10:08;;;;;;;37.25;27.27;;;;;;;20.85;55.13;99584.19;41294527;28;20046;-70
2024/01/01 02:30:10;;;;;;;34.97;25.05;;;;;;;20.81;55.35;99569.63;41238541;28;20508;-70
2024/01/01 02:50:11;;;;;;;32.25;23.70;;;;;;;20.81;55.14;99519.66;41363707;28;20039;-70
2024/01/01 03:10:12;;;;;;;32.03;21.98;;;;;;;20.81;55.54;99514.38;41355541;28;20552;-69
2024/01/01 03:30:13;;;;;;;28.42;21.27;;;;;;;20.79;55.28;99508.44;41365167;28;20401;-69
2024/01/01 03:50:14;;;;;;;27.23;20.65;;;;;;;20.76;55.16;99511.34;41359455;28;20046;-69
2024/01/01 04:10:17;;;;;;;26.23;19.27;;;;;;;20.73;55.56;99467.72;41353438;28;20046;-69
2024/01/01 04:30:18;;;;;;;23.13;18.25;;;;;;;20.73;55.32;99473.00;41353248;28;20394;-68
2024/01/01 04:50:18;;;;;;;26.13;16.90;;;;;;;20.69;55.45;99494.41;41342709;28;20042;-69
2024/01/01 05:10:19;;;;;;;20.73;16.00;;;;;;;20.62;55.25;99510.75;41348707;28;20121;-68
2024/01/01 05:30:20;;;;;;;18.80;14.73;;;;;;;21.33;53.65;99514.09;41353838;28;20053;-70
2024/01/01 05:50:21;;;;;;;16.77;13.43;;;;;;;21.42;53.36;99494.81;41355725;28;20070;-70
2024/01/01 06:10:22;;;;;;;15.52;12.02;;;;;;;21.47;53.66;99489.13;41384460;28;20061;-69
2024/01/01 06:30:22;;;;;;;14.63;11.18;;;;;;;21.46;52.82;99489.25;41359140;28;20054;-69
2024/01/01 06:50:23;;;;;;;15.05;11.15;;;;;;;21.55;52.35;99506.84;41360817;28;20041;-69
2024/01/01 07:10:23;;;;;;;12.63;10.63;;;;;;;21.54;53.05;99511.28;41360858;28;20054;-68
2024/01/01 07:30:24;;;;;;;12.38;10.20;;;;;;;21.50;53.33;99549.41;41361101;28;20057;-69
2024/01/01 07:50:25;;;;;;;14.50;9.85;;;;;;;21.35;50.63;99606.13;41353610;28;20157;-71
2024/01/01 08:10:26;;;;;;;11.77;8.45;;;;;;;21.52;51.25;99628.28;41340559;28;20046;-71
2024/01/01 08:30:26;;;;;;;9.35;8.00;;;;;;;21.49;51.65;99620.69;41340500;28;20055;-71
2024/01/01 08:50:27;;;;;;;10.98;7.65;;;;;;;21.61;51.65;99631.94;41338646;28;20527;-71
2024/01/01 09:10:27;;;;;;;70.18;21.45;;;;;;;21.67;52.79;99647.19;41343083;28;20050;-68
2024/01/01 09:30:28;;;;;;;50.05;18.25;;;;;;;21.81;52.86;99652.00;41342483;28;20044;-66
2024/01/01 09:50:28;;;;;;;43.25;16.02;;;;;;;21.73;52.39;99655.34;41366140;28;20042;-69
2024/01/01 10:10:28;;;;;;;34.42;15.05;;;;;;;21.70;53.17;99662.69;41377249;28;20166;-71
2024/01/01 10:30:29;;;;;;;26.33;12.93;;;;;;;21.86;52.90;99654.22;41345380;28;20128;-67
2024/01/01 10:50:31;;;;;;;28.13;12.50;;;;;;;22.21;51.85;99648.31;41347618;28;20052;-66
2024/01/01 11:10:45;;;;;;;23.40;11.52;;;;;;;22.44;52.83;99649.81;41335481;28;20141;-67
2024/01/01 11:30:46;;;;;;;20.27;11.77;;;;;;;22.52;53.20;99657.81;41350191;28;20136;-67
2024/01/01 11:50:48;;;;;;;12.30;6.90;;;;;;;22.25;49.90;99683.13;41336932;28;20050;-66
2024/01/01 12:10:58;;;;;;;11.70;6.22;;;;;;;22.53;51.04;99683.22;41327311;28;20050;-66
2024/01/01 12:30:59;;;;;;;15.77;6.60;;;;;;;22.64;51.21;99680.41;41203610;28;20130;-65
2024/01/01 12:51:00;;;;;;;9.80;5.97;;;;;;;22.77;51.32;99677.41;41187127;28;20062;-67
2024/01/01 13:11:04;;;;;;;8.85;6.10;;;;;;;22.61;51.99;99700.97;41286486;28;20502;-69
2024/01/01 13:31:06;;;;;;;11.85;6.88;;;;;;;22.45;52.46;99749.06;41380668;28;20436;-66
2024/01/01 13:51:06;;;;;;;7.78;5.78;;;;;;;22.23;51.69;99783.50;41367522;28;20045;-67
2024/01/01 14:11:07;;;;;;;11.30;7.97;;;;;;;22.12;52.28;99788.94;41362137;28;20092;-67
2024/01/01 14:31:07;;;;;;;11.15;7.05;;;;;;;22.02;53.12;99823.19;41404210;28;20475;-70
2024/01/01 14:51:07;;;;;;;9.25;6.68;;;;;;;21.91;53.73;99825.97;41367451;28;20137;-68
2024/01/01 15:11:09;;;;;;;9.07;6.85;;;;;;;22.07;53.13;99841.25;41347740;28;20141;-66
2024/01/01 15:31:15;;;;;;;10.13;6.80;;;;;;;22.09;58.02;99870.94;41337805;28;20526;-65
2024/01/01 15:51:18;;;;;;;8.85;6.03;;;;;;;21.83;57.58;99896.97;41319008;28;20126;-65
2024/01/01 16:11:20;;;;;;;7.97;5.63;;;;;;;21.74;55.77;99931.06;41213969;28;20129;-66
2024/01/01 16:31:22;;;;;;;12.32;5.32;;;;;;;21.56;55.08;99956.34;41325005;28;20502;-67
2024/01/01 16:51:23;;;;;;;8.30;4.53;;;;;;;21.40;53.07;99967.38;41201373;28;20501;-69
2024/01/01 17:11:25;;;;;;;7.50;4.18;;;;;;;21.39;53.87;100000.75;41300171;28;20129;-68
2024/01/01 17:31:26;;;;;;;5.50;3.92;;;;;;;21.36;53.37;100018.63;41323180;28;20038;-69
2024/01/01 17:51:26;;;;;;;5.93;4.05;;;;;;;21.46;54.50;100022.16;41363127;28;20091;-66
2024/01/01 18:11:27;;;;;;;7.10;3.67;;;;;;;21.37;54.60;100038.72;41372792;28;20070;-66
2024/01/01 18:31:27;;;;;;;6.13;3.60;;;;;;;21.36;54.25;100071.28;41364335;28;20046;-66
2024/01/01 18:51:28;;;;;;;5.60;3.30;;;;;;;21.33;55.35;100093.44;41354488;28;20052;-67
2024/01/01 19:11:29;;;;;;;6.78;3.13;;;;;;;21.31;55.41;100098.00;41369661;28;20038;-69
2024/01/01 19:31:37;;;;;;;6.22;2.78;;;;;;;21.33;54.97;100100.53;41368376;28;20406;-68
2024/01/01 19:51:39;;;;;;;6.70;2.90;;;;;;;21.37;54.68;100097.53;41357864;28;20053;-68
2024/01/01 20:11:40;;;;;;;7.22;4.32;;;;;;;21.34;54.19;100095.13;41374429;28;20066;-67
2024/01/01 20:31:41;;;;;;;11.77;4.25;;;;;;;21.35;54.22;100114.38;41329509;28;20053;-68
2024/01/01 20:51:43;;;;;;;9.27;4.47;;;;;;;21.18;55.21;100107.88;41325491;28;20037;-65
2024/01/01 21:11:44;;;;;;;11.18;4.32;;;;;;;21.19;55.19;100123.56;41326166;28;20505;-67
2024/01/01 21:31:44;;;;;;;11.10;4.03;;;;;;;21.14;55.25;100120.47;41294964;28;20042;-66
2024/01/01 21:51:45;;;;;;;6.97;3.80;;;;;;;21.11;55.87;100113.63;41380595;28;20038;-67
2024/01/01 22:11:46;;;;;;;6.53;3.22;;;;;;;21.10;55.42;100122.53;41368956;28;20038;-65
2024/01/01 22:31:52;;;;;;;6.72;3.53;;;;;;;21.02;55.59;100108.28;41369177;28;20038;-66
2024/01/01 22:51:53;;;;;;;5.85;3.58;;;;;;;20.92;55.96;100090.63;41370120;28;20129;-66
2024/01/01 23:11:53;;;;;;;6.45;3.50;;;;;;;20.88;56.21;100112.88;41359594;28;20046;-66
2024/01/01 23:31:54;;;;;;;5.47;3.17;;;;;;;20.85;55.96;100092.09;41226820;28;20077;-68
2024/01/01 23:51:56;;;;;;;4.65;2.90;;;;;;;20.80;56.10;100070.56;41354025;28;20076;-67
